createdAt,value
2023-01-15T00:02:17.260Z,81.26
2023-01-15T00:04:43.906Z,81.94
2023-01-15T00:07:10.656Z,81.71
2023-01-15T00:09:37.320Z,81.25
2023-01-15T00:12:04.235Z,82.06
2023-01-15T00:14:30.832Z,81.78
2023-01-15T00:17:00.231Z,82.21
2023-01-15T00:19:26.789Z,81.63
2023-01-15T00:21:54.109Z,81.84
2023-01-15T00:24:39.367Z,82.26
2023-01-15T00:27:24.482Z,81.71
2023-01-15T00:29:51.023Z,82.39
2023-01-15T00:32:17.643Z,82.35
2023-01-15T00:34:44.220Z,82.38
2023-01-15T00:37:10.790Z,82.28
2023-01-15T00:39:37.424Z,82.58
2023-01-15T00:42:04.086Z,82.31
2023-01-15T00:44:33.547Z,82.23
2023-01-15T00:47:00.414Z,82.70
2023-01-15T00:49:27.000Z,82.81
2023-01-15T00:51:53.760Z,82.54
2023-01-15T00:54:20.333Z,83.23
2023-01-15T00:56:46.905Z,82.51
2023-01-15T00:59:13.474Z,82.16
2023-01-15T01:01:40.724Z,82.89
2023-01-15T01:04:07.481Z,82.13
2023-01-15T01:06:34.880Z,82.58
2023-01-15T01:09:01.542Z,82.25
2023-01-15T01:11:34.645Z,81.97
2023-01-15T01:14:02.587Z,82.57
2023-01-15T01:16:38.381Z,82.23
2023-01-15T01:19:17.829Z,83.12
2023-01-15T01:21:46.016Z,82.49
2023-01-15T01:24:15.410Z,82.16
2023-01-15T01:26:44.124Z,81.34
2023-01-15T01:29:20.759Z,82.67
2023-01-15T01:31:48.054Z,81.96
2023-01-15T01:34:15.016Z,82.25
2023-01-15T01:36:43.868Z,82.28
2023-01-15T01:39:17.689Z,81.97
2023-01-15T01:41:46.284Z,82.08
2023-01-15T01:44:35.017Z,82.07
2023-01-15T01:47:29.758Z,82.11
2023-01-15T01:50:02.588Z,81.83
2023-01-15T01:53:03.578Z,82.29
2023-01-15T01:55:33.266Z,82.78
2023-01-15T01:58:03.002Z,82.69
2023-01-15T02:00:31.079Z,81.91
2023-01-15T02:02:58.204Z,81.89
2023-01-15T02:05:33.607Z,81.67
2023-01-15T02:08:01.085Z,81.67
2023-01-15T02:10:28.627Z,82.75
2023-01-15T02:13:01.337Z,82.80
2023-01-15T02:15:45.389Z,82.10
2023-01-15T02:18:20.939Z,81.98
2023-01-15T02:20:53.024Z,82.38
2023-01-15T02:23:28.557Z,82.04
2023-01-15T02:26:08.659Z,82.41
2023-01-15T02:28:40.722Z,82.21
2023-01-15T02:31:34.111Z,82.26
2023-01-15T02:34:04.885Z,83.16
2023-01-15T02:36:35.268Z,82.85
2023-01-15T02:39:08.129Z,82.02
2023-01-15T02:41:42.306Z,82.51
2023-01-15T02:44:12.942Z,82.72
2023-01-15T02:46:41.729Z,82.68
2023-01-15T02:49:15.124Z,82.46
2023-01-15T02:52:05.115Z,81.96
2023-01-15T02:54:40.018Z,82.59
2023-01-15T02:57:10.178Z,81.93
2023-01-15T02:59:41.135Z,82.11
2023-01-15T03:02:17.947Z,82.59
2023-01-15T03:04:50.659Z,81.70
2023-01-15T03:07:29.481Z,82.00
2023-01-15T03:09:57.434Z,82.01
2023-01-15T03:13:03.345Z,81.49
2023-01-15T03:16:23.904Z,81.55
2023-01-15T03:19:13.668Z,81.63
2023-01-15T03:21:55.087Z,81.95
2023-01-15T03:24:28.963Z,81.88
2023-01-15T03:26:55.618Z,82.04
2023-01-15T03:29:25.798Z,81.71
2023-01-15T03:31:53.619Z,81.54
2023-01-15T03:34:20.568Z,81.93
2023-01-15T03:36:48.335Z,81.63
2023-01-15T03:39:15.048Z,81.65
2023-01-15T03:42:11.456Z,81.96
2023-01-15T03:44:45.305Z,81.31
2023-01-15T03:47:45.593Z,81.28
2023-01-15T03:50:27.450Z,80.86
2023-01-15T03:53:27.012Z,81.13
2023-01-15T03:56:11.206Z,80.41
2023-01-15T03:58:52.786Z,80.66
2023-01-15T04:01:35.009Z,81.04
2023-01-15T04:04:03.054Z,80.88
2023-01-15T04:06:32.188Z,80.41
2023-01-15T04:08:59.511Z,80.83
2023-01-15T04:11:28.401Z,80.85
2023-01-15T04:14:00.977Z,80.74
2023-01-15T04:16:36.904Z,80.20
2023-01-15T04:19:03.825Z,80.77
2023-01-15T04:21:33.330Z,80.66
2023-01-15T04:23:59.876Z,80.79
2023-01-15T04:26:28.442Z,80.75
2023-01-15T04:28:55.156Z,81.12
2023-01-15T04:31:21.788Z,80.98
2023-01-15T04:33:48.413Z,80.78
2023-01-15T04:36:14.977Z,80.84
2023-01-15T04:38:41.614Z,80.22
2023-01-15T04:41:47.770Z,80.47
2023-01-15T04:44:14.361Z,80.65
2023-01-15T04:46:43.537Z,80.35
2023-01-15T04:49:16.855Z,80.62
2023-01-15T04:51:43.942Z,80.37
2023-01-15T04:54:12.834Z,80.47
2023-01-15T04:56:50.912Z,80.63
2023-01-15T04:59:20.051Z,80.07
2023-01-15T05:02:02.020Z,80.88
2023-01-15T05:04:30.356Z,80.78
2023-01-15T05:06:56.972Z,80.47
2023-01-15T05:09:23.543Z,80.66
2023-01-15T05:11:50.046Z,80.17
2023-01-15T05:14:16.645Z,80.64
2023-01-15T05:16:43.233Z,80.50
2023-01-15T05:19:10.510Z,80.58
2023-01-15T05:21:41.208Z,80.48
2023-01-15T05:24:16.816Z,80.72
2023-01-15T05:26:43.894Z,80.64
2023-01-15T05:29:11.478Z,80.37
2023-01-15T05:31:39.564Z,80.72
2023-01-15T05:34:06.075Z,80.64
2023-01-15T05:36:32.743Z,80.43
2023-01-15T05:39:01.657Z,80.41
2023-01-15T05:41:48.196Z,80.49
2023-01-15T05:44:16.965Z,80.55
2023-01-15T05:46:44.860Z,80.90
2023-01-15T05:49:14.340Z,80.41
2023-01-15T05:51:41.542Z,80.48
2023-01-15T05:54:11.042Z,80.30
2023-01-15T05:56:38.411Z,79.99
2023-01-15T05:59:06.478Z,80.29
2023-01-15T06:01:33.295Z,80.50
2023-01-15T06:04:02.296Z,80.42
2023-01-15T06:06:29.118Z,80.18
2023-01-15T06:08:55.782Z,80.37
2023-01-15T06:11:22.555Z,80.44
2023-01-15T06:13:49.087Z,80.19
2023-01-15T06:16:15.776Z,80.43
2023-01-15T06:18:45.491Z,80.25
2023-01-15T06:21:14.155Z,80.33
2023-01-15T06:23:41.661Z,80.42
2023-01-15T06:26:15.643Z,80.06
2023-01-15T06:28:43.369Z,80.49
2023-01-15T06:31:12.576Z,79.91
2023-01-15T06:33:39.295Z,80.03
2023-01-15T06:36:08.870Z,80.04
2023-01-15T06:38:35.574Z,80.03
2023-01-15T06:41:04.908Z,80.18
2023-01-15T06:43:50.058Z,80.14
2023-01-15T06:46:35.978Z,80.20
2023-01-15T06:49:02.662Z,79.45
2023-01-15T06:51:31.191Z,79.83
2023-01-15T06:53:57.913Z,79.61
2023-01-15T06:56:24.455Z,79.61
2023-01-15T06:58:51.006Z,79.95
2023-01-15T07:01:17.597Z,79.63
2023-01-15T07:03:44.232Z,79.97
2023-01-15T07:06:13.337Z,80.00
2023-01-15T07:08:40.187Z,79.92
2023-01-15T07:11:09.077Z,79.69
2023-01-15T07:13:36.642Z,79.63
2023-01-15T07:16:04.585Z,79.33
2023-01-15T07:18:33.823Z,79.43
2023-01-15T07:21:00.769Z,79.41
2023-01-15T07:23:28.094Z,79.21
2023-01-15T07:25:55.825Z,79.69
2023-01-15T07:28:23.672Z,79.62
2023-01-15T07:30:50.404Z,79.33
2023-01-15T07:33:17.756Z,79.42
2023-01-15T07:35:44.314Z,79.50
2023-01-15T07:38:10.848Z,79.36
2023-01-15T07:40:38.846Z,79.29
2023-01-15T07:43:24.150Z,79.36
2023-01-15T07:46:09.626Z,79.53
2023-01-15T07:48:54.899Z,79.16
2023-01-15T07:51:21.480Z,79.62
2023-01-15T07:53:48.023Z,78.96
2023-01-15T07:56:15.358Z,79.11
2023-01-15T07:58:43.388Z,78.88
2023-01-15T08:01:10.028Z,79.32
2023-01-15T08:03:36.698Z,79.70
2023-01-15T08:06:03.372Z,79.82
2023-01-15T08:08:29.988Z,79.32
2023-01-15T08:11:20.072Z,79.73
2023-01-15T08:14:05.105Z,79.63
2023-01-15T08:16:35.629Z,79.70
2023-01-15T08:19:02.265Z,79.89
2023-01-15T08:21:28.854Z,80.26
2023-01-15T08:23:55.375Z,79.80
2023-01-15T08:26:21.972Z,79.82
2023-01-15T08:28:48.527Z,79.88
2023-01-15T08:31:15.109Z,80.27
2023-01-15T08:33:41.677Z,80.30
2023-01-15T08:36:08.766Z,80.13
2023-01-15T08:38:35.322Z,80.37
2023-01-15T08:41:03.623Z,80.48
2023-01-15T08:43:33.249Z,80.80
2023-01-15T08:46:01.437Z,80.67
2023-01-15T08:48:30.817Z,81.20
2023-01-15T08:50:57.601Z,80.73
2023-01-15T08:53:24.555Z,80.67
2023-01-15T08:55:51.134Z,80.84
2023-01-15T08:58:17.844Z,82.44
2023-01-15T09:00:44.515Z,82.87
2023-01-15T09:03:11.165Z,83.54
2023-01-15T09:05:38.267Z,83.69
2023-01-15T09:08:06.676Z,83.41
2023-01-15T09:10:34.542Z,84.09
2023-01-15T09:13:01.715Z,84.24
2023-01-15T09:15:30.656Z,84.38
2023-01-15T09:17:58.139Z,83.85
2023-01-15T09:20:25.190Z,83.58
2023-01-15T09:22:52.105Z,83.10
2023-01-15T09:25:19.970Z,82.50
2023-01-15T09:27:46.985Z,81.72
2023-01-15T09:30:18.185Z,81.89
2023-01-15T09:32:44.989Z,81.46
2023-01-15T09:35:13.505Z,81.48
2023-01-15T09:37:40.415Z,79.95
2023-01-15T09:40:19.377Z,80.78
2023-01-15T09:42:49.294Z,80.81
2023-01-15T09:45:22.029Z,80.99
2023-01-15T09:48:00.367Z,80.00
2023-01-15T09:50:48.282Z,79.78
2023-01-15T09:53:28.498Z,79.23
2023-01-15T09:55:55.299Z,79.52
2023-01-15T09:58:32.699Z,79.71
2023-01-15T10:00:59.864Z,79.64
2023-01-15T10:03:46.214Z,80.59
2023-01-15T10:06:45.725Z,79.76
2023-01-15T10:09:18.079Z,80.55
2023-01-15T10:12:10.307Z,78.83
2023-01-15T10:14:45.724Z,78.81
2023-01-15T10:17:22.501Z,78.79
2023-01-15T10:19:49.321Z,78.88
2023-01-15T10:22:57.701Z,79.29
2023-01-15T10:25:31.338Z,79.58
2023-01-15T10:28:05.272Z,79.44
2023-01-15T10:30:50.770Z,80.10
2023-01-15T10:33:50.275Z,80.31
2023-01-15T10:36:34.327Z,80.06
2023-01-15T10:39:21.332Z,80.07
2023-01-15T10:42:06.691Z,79.78
2023-01-15T10:44:47.699Z,79.53
2023-01-15T10:47:20.064Z,79.03
2023-01-15T10:49:49.283Z,78.86
2023-01-15T10:52:31.038Z,78.47
2023-01-15T10:55:15.290Z,77.68
2023-01-15T10:58:09.030Z,77.33
2023-01-15T11:00:38.278Z,77.25
2023-01-15T11:03:16.453Z,76.19
2023-01-15T11:05:45.732Z,76.57
2023-01-15T11:09:08.076Z,77.30
2023-01-15T11:11:46.910Z,77.12
2023-01-15T11:14:32.311Z,76.31
2023-01-15T11:17:08.060Z,76.25
2023-01-15T11:19:41.751Z,75.48
2023-01-15T11:22:18.297Z,75.42
2023-01-15T11:24:52.014Z,75.42
2023-01-15T11:27:27.076Z,75.49
2023-01-15T11:29:57.161Z,75.46
2023-01-15T11:32:29.792Z,76.24
2023-01-15T11:35:00.537Z,75.91
2023-01-15T11:37:29.366Z,76.01
2023-01-15T11:40:04.962Z,76.15
2023-01-15T11:42:50.581Z,76.24
2023-01-15T11:45:39.993Z,76.97
2023-01-15T11:48:43.525Z,76.36
2023-01-15T11:51:15.845Z,75.99
2023-01-15T11:53:48.101Z,75.97
2023-01-15T11:56:24.642Z,76.20
2023-01-15T11:58:57.207Z,75.82
2023-01-15T12:01:35.997Z,76.42
2023-01-15T12:04:21.614Z,75.88
2023-01-15T12:06:48.530Z,76.67
2023-01-15T12:09:43.331Z,75.02
2023-01-15T12:12:16.432Z,75.23
2023-01-15T12:14:58.053Z,75.56
2023-01-15T12:17:37.573Z,75.44
2023-01-15T12:20:33.354Z,75.64
2023-01-15T12:23:24.840Z,75.76
2023-01-15T12:26:10.243Z,75.41
2023-01-15T12:28:42.818Z,74.71
2023-01-15T12:31:25.712Z,75.70
2023-01-15T12:33:54.963Z,75.91
2023-01-15T12:36:41.873Z,76.06
2023-01-15T12:39:34.934Z,77.10
2023-01-15T12:42:26.117Z,76.59
2023-01-15T12:45:04.090Z,75.22
2023-01-15T12:47:57.694Z,76.34
2023-01-15T12:50:31.638Z,75.78
2023-01-15T12:53:16.679Z,74.76
2023-01-15T12:56:02.388Z,75.62
2023-01-15T12:58:37.135Z,75.56
2023-01-15T13:01:17.913Z,75.16
2023-01-15T13:03:53.410Z,75.25
2023-01-15T13:06:24.290Z,75.53
2023-01-15T13:09:43.145Z,75.35
2023-01-15T13:12:17.191Z,75.03
2023-01-15T13:14:46.423Z,74.78
2023-01-15T13:17:22.103Z,75.79
2023-01-15T13:20:12.964Z,75.69
2023-01-15T13:22:53.063Z,76.27
2023-01-15T13:26:18.221Z,76.55
2023-01-15T13:28:52.298Z,76.92
2023-01-15T13:31:43.566Z,76.92
2023-01-15T13:34:20.967Z,77.44
2023-01-15T13:36:49.709Z,77.38
2023-01-15T13:39:25.106Z,76.48
2023-01-15T13:42:14.007Z,76.33
2023-01-15T13:44:49.845Z,75.41
2023-01-15T13:47:26.933Z,76.37
2023-01-15T13:49:59.600Z,75.72
2023-01-15T13:52:35.525Z,75.71
2023-01-15T13:55:20.267Z,76.93
2023-01-15T13:57:48.816Z,76.50
2023-01-15T14:00:38.143Z,76.55
2023-01-15T14:03:25.875Z,75.50
2023-01-15T14:06:11.000Z,75.73
2023-01-15T14:08:43.192Z,75.56
2023-01-15T14:11:36.088Z,76.41
2023-01-15T14:14:27.082Z,76.43
2023-01-15T14:17:17.088Z,76.55
2023-01-15T14:20:11.674Z,76.92
2023-01-15T14:22:44.072Z,76.49
2023-01-15T14:25:13.656Z,76.45
2023-01-15T14:27:44.370Z,76.46
2023-01-15T14:30:23.917Z,76.26
2023-01-15T14:33:00.726Z,76.03
2023-01-15T14:35:28.925Z,75.35
2023-01-15T14:38:05.736Z,75.38
2023-01-15T14:40:35.367Z,74.71
2023-01-15T14:43:10.511Z,75.25
2023-01-15T14:45:40.976Z,74.06
2023-01-15T14:48:28.521Z,73.92
2023-01-15T14:51:08.057Z,73.66
2023-01-15T14:53:45.148Z,74.11
2023-01-15T14:56:19.275Z,73.60
2023-01-15T14:59:14.329Z,73.88
2023-01-15T15:01:57.026Z,74.56
2023-01-15T15:04:32.907Z,73.63
2023-01-15T15:07:15.194Z,73.30
2023-01-15T15:09:48.482Z,73.23
2023-01-15T15:12:32.041Z,73.31
2023-01-15T15:15:01.684Z,73.48
2023-01-15T15:17:39.810Z,73.45
2023-01-15T15:20:26.774Z,74.04
2023-01-15T15:22:59.484Z,73.43
2023-01-15T15:25:32.644Z,73.75
2023-01-15T15:28:16.991Z,74.20
2023-01-15T15:30:45.896Z,74.45
2023-01-15T15:33:20.089Z,74.13
2023-01-15T15:35:56.430Z,74.23
2023-01-15T15:38:24.535Z,74.57
2023-01-15T15:40:59.056Z,74.34
2023-01-15T15:44:01.003Z,74.70
2023-01-15T15:46:48.621Z,74.65
2023-01-15T15:49:15.396Z,74.33
2023-01-15T15:51:52.331Z,74.53
2023-01-15T15:54:22.683Z,74.23
2023-01-15T15:57:03.904Z,74.95
2023-01-15T15:59:33.599Z,75.75
2023-01-15T16:02:14.336Z,74.93
2023-01-15T16:04:48.804Z,73.73
2023-01-15T16:07:24.043Z,72.75
2023-01-15T16:09:53.076Z,72.58
2023-01-15T16:12:19.931Z,72.10
2023-01-15T16:14:47.892Z,72.56
2023-01-15T16:17:15.334Z,70.68
2023-01-15T16:19:43.460Z,72.55
2023-01-15T16:22:15.495Z,73.02
2023-01-15T16:24:56.762Z,71.35
2023-01-15T16:27:28.105Z,71.64
2023-01-15T16:29:55.024Z,71.00
2023-01-15T16:32:28.896Z,71.07
2023-01-15T16:35:20.384Z,71.19
2023-01-15T16:37:52.232Z,71.18
2023-01-15T16:40:29.856Z,71.43
2023-01-15T16:43:24.516Z,70.87
2023-01-15T16:46:19.538Z,71.53
2023-01-15T16:48:46.914Z,71.50
2023-01-15T16:51:33.465Z,71.95
2023-01-15T16:54:04.480Z,71.47
2023-01-15T16:56:40.367Z,71.71
2023-01-15T16:59:40.826Z,72.01
2023-01-15T17:02:20.311Z,72.32
2023-01-15T17:04:47.926Z,72.68
2023-01-15T17:07:39.813Z,72.44
2023-01-15T17:10:19.553Z,73.22
2023-01-15T17:12:46.956Z,72.69
2023-01-15T17:15:16.567Z,72.67
2023-01-15T17:17:44.601Z,73.00
2023-01-15T17:20:12.932Z,73.62
2023-01-15T17:22:45.015Z,73.20
2023-01-15T17:25:26.218Z,73.44
2023-01-15T17:27:54.750Z,74.00
2023-01-15T17:30:22.564Z,74.23
2023-01-15T17:32:49.120Z,73.60
2023-01-15T17:35:25.505Z,74.42
2023-01-15T17:37:52.140Z,74.42
2023-01-15T17:40:19.463Z,74.58
2023-01-15T17:42:46.674Z,75.13
2023-01-15T17:45:33.739Z,74.83
2023-01-15T17:48:01.948Z,74.26
2023-01-15T17:50:29.865Z,74.38
2023-01-15T17:52:56.389Z,74.73
2023-01-15T17:55:42.048Z,76.33
2023-01-15T17:58:34.375Z,75.59
2023-01-15T18:01:22.681Z,75.12
2023-01-15T18:04:12.523Z,74.95
2023-01-15T18:06:42.971Z,75.32
2023-01-15T18:09:09.530Z,76.01
2023-01-15T18:11:36.127Z,75.81
2023-01-15T18:14:02.693Z,75.71
2023-01-15T18:16:29.817Z,75.65
2023-01-15T18:18:56.426Z,76.58
2023-01-15T18:21:23.122Z,76.27
2023-01-15T18:23:49.945Z,76.13
2023-01-15T18:26:16.586Z,75.88
2023-01-15T18:28:45.188Z,75.95
2023-01-15T18:31:12.036Z,76.00
2023-01-15T18:33:38.692Z,75.78
2023-01-15T18:36:05.418Z,76.24
2023-01-15T18:38:35.038Z,75.94
2023-01-15T18:41:36.632Z,76.09
2023-01-15T18:44:25.729Z,76.52
2023-01-15T18:46:55.408Z,76.42
2023-01-15T18:49:22.371Z,76.83
2023-01-15T18:52:09.112Z,76.88
2023-01-15T18:54:36.288Z,77.03
2023-01-15T18:57:05.191Z,76.46
2023-01-15T18:59:31.826Z,77.35
2023-01-15T19:01:58.892Z,76.64
2023-01-15T19:04:26.121Z,76.73
2023-01-15T19:06:55.664Z,77.22
2023-01-15T19:09:24.331Z,76.64
2023-01-15T19:11:52.317Z,76.98
2023-01-15T19:14:37.919Z,78.03
2023-01-15T19:17:23.022Z,77.52
2023-01-15T19:19:49.649Z,77.88
2023-01-15T19:22:34.870Z,77.13
2023-01-15T19:25:01.515Z,78.40
2023-01-15T19:27:28.128Z,77.45
2023-01-15T19:29:54.781Z,78.29
2023-01-15T19:32:21.339Z,77.30
2023-01-15T19:34:47.965Z,77.17
2023-01-15T19:37:14.526Z,78.86
2023-01-15T19:39:41.096Z,77.87
2023-01-15T19:42:27.700Z,77.61
2023-01-15T19:45:12.701Z,78.82
2023-01-15T19:47:59.427Z,78.45
2023-01-15T19:50:36.912Z,77.81
2023-01-15T19:53:04.950Z,76.58
2023-01-15T19:55:32.453Z,77.72
2023-01-15T19:58:07.465Z,76.80
2023-01-15T20:00:37.243Z,76.90
2023-01-15T20:03:05.069Z,75.77
2023-01-15T20:05:32.815Z,75.93
2023-01-15T20:07:59.568Z,76.64
2023-01-15T20:10:28.373Z,76.40
2023-01-15T20:13:13.462Z,76.70
2023-01-15T20:15:42.691Z,76.37
2023-01-15T20:18:09.356Z,76.89
2023-01-15T20:20:37.188Z,76.36
2023-01-15T20:23:04.801Z,77.98
2023-01-15T20:25:32.155Z,77.87
2023-01-15T20:28:02.276Z,76.69
2023-01-15T20:30:29.042Z,76.92
2023-01-15T20:32:59.854Z,76.40
2023-01-15T20:35:31.210Z,77.02
2023-01-15T20:37:58.147Z,78.79
2023-01-15T20:40:25.558Z,77.36
2023-01-15T20:43:11.675Z,77.84
2023-01-15T20:45:39.557Z,78.49
2023-01-15T20:48:12.368Z,77.91
2023-01-15T20:51:03.337Z,77.94
2023-01-15T20:53:33.615Z,77.70
2023-01-15T20:56:02.343Z,78.95
2023-01-15T20:58:29.102Z,78.31
2023-01-15T21:01:02.574Z,78.02
2023-01-15T21:03:29.204Z,78.51
2023-01-15T21:05:59.134Z,78.73
2023-01-15T21:08:25.862Z,77.94
2023-01-15T21:10:53.863Z,77.98
2023-01-15T21:13:22.876Z,78.98
2023-01-15T21:15:55.381Z,79.35
2023-01-15T21:18:22.256Z,80.19
2023-01-15T21:20:48.845Z,78.79
2023-01-15T21:23:15.471Z,79.72
2023-01-15T21:25:42.099Z,79.95
2023-01-15T21:28:08.685Z,78.52
2023-01-15T21:30:35.296Z,78.24
2023-01-15T21:33:02.520Z,78.95
2023-01-15T21:35:29.086Z,78.98
2023-01-15T21:37:55.712Z,79.02
2023-01-15T21:40:22.265Z,79.44
2023-01-15T21:43:07.440Z,78.83
2023-01-15T21:45:34.060Z,79.14
2023-01-15T21:48:00.881Z,79.39
2023-01-15T21:50:27.537Z,78.71
2023-01-15T21:52:54.096Z,79.97
2023-01-15T21:55:20.652Z,80.22
2023-01-15T21:57:49.110Z,78.83
2023-01-15T22:00:17.739Z,79.04
2023-01-15T22:02:44.433Z,80.03
2023-01-15T22:05:11.057Z,79.32
2023-01-15T22:07:37.567Z,79.36
2023-01-15T22:10:07.058Z,79.83
2023-01-15T22:12:38.078Z,78.93
2023-01-15T22:15:04.998Z,79.02
2023-01-15T22:17:31.543Z,79.62
2023-01-15T22:19:58.127Z,78.81
2023-01-15T22:22:30.564Z,79.07
2023-01-15T22:24:57.154Z,79.57
2023-01-15T22:27:23.754Z,79.77
2023-01-15T22:29:50.320Z,79.85
2023-01-15T22:32:16.949Z,79.88
2023-01-15T22:34:43.892Z,79.53
2023-01-15T22:37:15.848Z,79.61
2023-01-15T22:39:42.399Z,79.86
2023-01-15T22:42:24.292Z,80.00
2023-01-15T22:44:52.087Z,79.98
2023-01-15T22:47:19.955Z,79.08
2023-01-15T22:49:46.670Z,79.63
2023-01-15T22:52:13.361Z,79.76
2023-01-15T22:54:41.317Z,80.37
2023-01-15T22:57:07.900Z,79.37
2023-01-15T22:59:34.517Z,80.50
2023-01-15T23:02:01.182Z,79.90
2023-01-15T23:04:27.970Z,80.31
2023-01-15T23:06:54.674Z,80.62
2023-01-15T23:09:22.841Z,80.22
2023-01-15T23:11:51.645Z,80.52
2023-01-15T23:14:20.710Z,79.48
2023-01-15T23:16:47.592Z,80.13
2023-01-15T23:19:14.560Z,79.42
2023-01-15T23:21:42.436Z,79.68
2023-01-15T23:24:09.431Z,79.92
2023-01-15T23:26:36.224Z,80.83
2023-01-15T23:29:03.575Z,80.43
2023-01-15T23:31:30.403Z,81.48
2023-01-15T23:33:56.995Z,80.99
2023-01-15T23:36:23.911Z,81.35
2023-01-15T23:38:50.467Z,80.72
2023-01-15T23:41:40.464Z,81.22
2023-01-15T23:44:32.235Z,81.28
2023-01-15T23:46:58.889Z,82.08
2023-01-15T23:49:25.608Z,82.04
2023-01-15T23:51:52.609Z,81.79
2023-01-15T23:54:19.188Z,81.35
2023-01-15T23:56:46.202Z,81.24
2023-01-15T23:59:12.883Z,81.15
